Details for BMI Regional at EGNT




Go Back


Latest METAR
Local Time

EGNT 180420Z 00000KT CAVOK 00/00 Q1019

18/02/2018, 04:36:11

Description
Results
BMI Regional Logo
Number of Pilots based at EGNT
1 Pilots Based here
Number of BMI Regional Flights Departed from EGNT
0 Flights Departed
Number of BMI Regional Flights Arrived at EGNT
0 Flights Arrived
Number of BMI Regional Schedules Departing from EGNT
4 Schedules
Number of BMI Regional Schedules Arriving at EGNT
5 Schedules
Number of BMI Regional Schedules Departing from EGNT availible today
2 Schedules Today
Number of BMI Regional Schedules Arriving at EGNT availible today
2 Schedules Today
Average Landing Rate at EGNT
-268 fpm
BMI Regional Average Landing Rate at EGNT
0 fpm
Total Fuel Purchased at EGNT by BMI Regional
0.00 kgs / 0.00 lbs

Pilots Based at EGNT


Pilot ID
Pilot Name
Pilot Rank
No. of Flights
No. of Flying Hours
Michael Gow
114
354.04
Content